sensor_id;sensor_type;location;lat;lon;timestamp;pressure;altitude;pressure_sealevel;temperature;humidity
45247;BME280;31529;51.158;7.354;2022-12-07T00:00:15;97918.81;;;5.66;91.90
45247;BME280;31529;51.158;7.354;2022-12-07T00:00:46;97920.66;;;5.66;91.72
45247;BME280;31529;51.158;7.354;2022-12-07T00:01:19;97920.91;;;5.64;91.52
45247;BME280;31529;51.158;7.354;2022-12-07T00:01:52;97920.91;;;5.64;92.27
45247;BME280;31529;51.158;7.354;2022-12-07T00:02:23;97921.69;;;5.65;91.94
45247;BME280;31529;51.158;7.354;2022-12-07T00:02:54;97919.59;;;5.67;91.86
45247;BME280;31529;51.158;7.354;2022-12-07T00:03:25;97819.31;;;5.01;91.45
45247;BME280;31529;51.158;7.354;2022-12-07T00:03:59;97922.00;;;5.68;91.69
45247;BME280;31529;51.158;7.354;2022-12-07T00:04:36;97925.72;;;5.67;91.77
45247;BME280;31529;51.158;7.354;2022-12-07T00:05:07;97925.16;;;5.65;91.53
45247;BME280;31529;51.158;7.354;2022-12-07T00:05:38;97928.59;;;5.66;92.08
45247;BME280;31529;51.158;7.354;2022-12-07T00:06:10;97927.00;;;5.65;91.86
45247;BME280;31529;51.158;7.354;2022-12-07T00:06:44;97922.53;;;5.65;92.23
45247;BME280;31529;51.158;7.354;2022-12-07T00:07:16;97921.47;;;5.66;91.65
45247;BME280;31529;51.158;7.354;2022-12-07T00:07:47;97928.59;;;5.66;91.98
45247;BME280;31529;51.158;7.354;2022-12-07T00:08:19;97925.16;;;5.65;91.62
45247;BME280;31529;51.158;7.354;2022-12-07T00:08:53;97925.41;;;5.64;91.52
45247;BME280;31529;51.158;7.354;2022-12-07T00:09:25;97872.72;;;5.30;92.03
45247;BME280;31529;51.158;7.354;2022-12-07T00:09:56;97923.56;;;5.64;91.95
45247;BME280;31529;51.158;7.354;2022-12-07T00:10:27;97924.34;;;5.65;92.07
45247;BME280;31529;51.158;7.354;2022-12-07T00:11:05;97921.69;;;5.65;92.02
45247;BME280;31529;51.158;7.354;2022-12-07T00:11:43;97921.47;;;5.66;92.07
45247;BME280;31529;51.158;7.354;2022-12-07T00:12:15;97918.03;;;5.66;91.51
45247;BME280;31529;51.158;7.354;2022-12-07T00:12:46;97924.91;;;5.67;92.10
45247;BME280;31529;51.158;7.354;2022-12-07T00:13:17;97925.97;;;5.66;91.65
45247;BME280;31529;51.158;7.354;2022-12-07T00:13:55;97922.25;;;5.67;91.59
45247;BME280;31529;51.158;7.354;2022-12-07T00:14:27;97924.41;;;5.70;91.79
45247;BME280;31529;51.158;7.354;2022-12-07T00:14:58;97914.34;;;5.72;91.89
45247;BME280;31529;51.158;7.354;2022-12-07T00:15:29;97924.22;;;5.77;91.62
45247;BME280;31529;51.158;7.354;2022-12-07T00:16:01;97918.38;;;5.80;91.41
45247;BME280;31529;51.158;7.354;2022-12-07T00:16:34;97920.25;;;5.79;91.32
45247;BME280;31529;51.158;7.354;2022-12-07T00:17:05;97919.19;;;5.80;91.29
45247;BME280;31529;51.158;7.354;2022-12-07T00:17:36;97908.59;;;5.80;91.73
45247;BME280;31529;51.158;7.354;2022-12-07T00:18:07;97912.84;;;5.81;90.91
45247;BME280;31529;51.158;7.354;2022-12-07T00:18:38;97916.03;;;5.83;91.46
45247;BME280;31529;51.158;7.354;2022-12-07T00:19:11;97911.53;;;5.84;90.95
45247;BME280;31529;51.158;7.354;2022-12-07T00:19:43;97916.03;;;5.83;91.02
45247;BME280;31529;51.158;7.354;2022-12-07T00:20:14;97919.22;;;5.85;91.37
45247;BME280;31529;51.158;7.354;2022-12-07T00:20:45;97774.25;;;4.91;91.22
45247;BME280;31529;51.158;7.354;2022-12-07T00:21:18;97913.94;;;5.85;91.22
45247;BME280;31529;51.158;7.354;2022-12-07T00:21:50;97915.53;;;5.86;91.20
45247;BME280;31529;51.158;7.354;2022-12-07T00:22:21;97909.66;;;5.79;91.44
45247;BME280;31529;51.158;7.354;2022-12-07T00:22:52;97914.94;;;5.79;91.47
45247;BME280;31529;51.158;7.354;2022-12-07T00:23:23;97910.69;;;5.78;91.64
45247;BME280;31529;51.158;7.354;2022-12-07T00:23:54;97916.00;;;5.78;91.35
45247;BME280;31529;51.158;7.354;2022-12-07T00:24:27;97915.19;;;5.78;91.70
45247;BME280;31529;51.158;7.354;2022-12-07T00:24:58;97915.19;;;5.78;91.90
45247;BME280;31529;51.158;7.354;2022-12-07T00:25:30;97913.88;;;5.75;92.09
45247;BME280;31529;51.158;7.354;2022-12-07T00:26:04;97916.50;;;5.75;92.13
45247;BME280;31529;51.158;7.354;2022-12-07T00:26:41;97914.66;;;5.76;91.94
45247;BME280;31529;51.158;7.354;2022-12-07T00:27:13;97916.50;;;5.75;91.57
45247;BME280;31529;51.158;7.354;2022-12-07T00:27:44;97912.00;;;5.76;91.66
45247;BME280;31529;51.158;7.354;2022-12-07T00:28:15;97918.09;;;5.76;91.80
45247;BME280;31529;51.158;7.354;2022-12-07T00:28:47;97907.50;;;5.76;91.75
45247;BME280;31529;51.158;7.354;2022-12-07T00:29:20;97913.63;;;5.77;91.68
45247;BME280;31529;51.158;7.354;2022-12-07T00:29:52;97914.66;;;5.76;91.79
45247;BME280;31529;51.158;7.354;2022-12-07T00:30:23;97903.81;;;5.77;91.87
45247;BME280;31529;51.158;7.354;2022-12-07T00:30:59;97909.34;;;5.76;91.75
45247;BME280;31529;51.158;7.354;2022-12-07T00:31:33;97911.22;;;5.75;91.53
45247;BME280;31529;51.158;7.354;2022-12-07T00:32:09;97903.03;;;5.77;91.75
45247;BME280;31529;51.158;7.354;2022-12-07T00:32:40;97913.34;;;5.78;91.54
45247;BME280;31529;51.158;7.354;2022-12-07T00:33:11;97914.41;;;5.77;91.64
45247;BME280;31529;51.158;7.354;2022-12-07T00:33:42;97911.75;;;5.77;91.56
45247;BME280;31529;51.158;7.354;2022-12-07T00:34:17;97912.56;;;5.78;92.01
45247;BME280;31529;51.158;7.354;2022-12-07T00:34:49;97904.84;;;5.76;91.65
45247;BME280;31529;51.158;7.354;2022-12-07T00:35:20;97912.00;;;5.76;92.10
45247;BME280;31529;51.158;7.354;2022-12-07T00:35:55;97910.69;;;5.78;91.90
45247;BME280;31529;51.158;7.354;2022-12-07T00:36:27;97903.56;;;5.79;91.49
45247;BME280;31529;51.158;7.354;2022-12-07T00:36:58;97907.78;;;5.80;92.13
45247;BME280;31529;51.158;7.354;2022-12-07T00:37:29;97905.94;;;5.80;91.52
45247;BME280;31529;51.158;7.354;2022-12-07T00:38:00;97905.94;;;5.80;91.46
45247;BME280;31529;51.158;7.354;2022-12-07T00:38:32;97900.66;;;5.80;92.08
45247;BME280;31529;51.158;7.354;2022-12-07T00:39:05;97906.75;;;5.81;91.99
45247;BME280;31529;51.158;7.354;2022-12-07T00:39:36;97903.88;;;5.82;91.52
45247;BME280;31529;51.158;7.354;2022-12-07T00:40:07;97901.22;;;5.82;92.04
45247;BME280;31529;51.158;7.354;2022-12-07T00:40:38;97899.34;;;5.83;91.59
45247;BME280;31529;51.158;7.354;2022-12-07T00:41:16;97893.28;;;5.82;91.62
45247;BME280;31529;51.158;7.354;2022-12-07T00:41:49;97894.31;;;5.81;91.53
45247;BME280;31529;51.158;7.354;2022-12-07T00:42:20;97896.97;;;5.81;91.64
45247;BME280;31529;51.158;7.354;2022-12-07T00:42:52;97893.53;;;5.81;92.10
45247;BME280;31529;51.158;7.354;2022-12-07T00:43:23;97898.56;;;5.82;91.96
45247;BME280;31529;51.158;7.354;2022-12-07T00:43:54;97895.91;;;5.82;91.82
45247;BME280;31529;51.158;7.354;2022-12-07T00:44:25;97904.66;;;5.83;91.80
45247;BME280;31529;51.158;7.354;2022-12-07T00:44:56;97900.41;;;5.82;92.07
45247;BME280;31529;51.158;7.354;2022-12-07T00:45:27;97902.00;;;5.83;91.81
45247;BME280;31529;51.158;7.354;2022-12-07T00:45:59;97892.47;;;5.82;91.80
45247;BME280;31529;51.158;7.354;2022-12-07T00:46:30;97902.00;;;5.83;91.76
45247;BME280;31529;51.158;7.354;2022-12-07T00:47:01;97899.13;;;5.84;92.11
45247;BME280;31529;51.158;7.354;2022-12-07T00:47:32;97900.16;;;5.83;91.75
45247;BME280;31529;51.158;7.354;2022-12-07T00:48:03;97902.78;;;5.83;91.51
45247;BME280;31529;51.158;7.354;2022-12-07T00:48:34;97893.81;;;5.84;91.76
45247;BME280;31529;51.158;7.354;2022-12-07T00:49:05;97893.81;;;5.84;91.46
45247;BME280;31529;51.158;7.354;2022-12-07T00:49:36;97898.84;;;5.86;91.60
45247;BME280;31529;51.158;7.354;2022-12-07T00:50:07;97890.88;;;5.86;91.52
45247;BME280;31529;51.158;7.354;2022-12-07T00:50:39;97894.59;;;5.85;91.42
45247;BME280;31529;51.158;7.354;2022-12-07T00:51:10;97899.13;;;5.84;91.92
45247;BME280;31529;51.158;7.354;2022-12-07T00:51:42;97897.00;;;5.86;91.58
45247;BME280;31529;51.158;7.354;2022-12-07T00:52:14;97894.91;;;5.89;91.74
45247;BME280;31529;51.158;7.354;2022-12-07T00:52:45;97712.41;;;4.64;91.48
45247;BME280;31529;51.158;7.354;2022-12-07T00:53:16;97904.69;;;5.88;91.28
45247;BME280;31529;51.158;7.354;2022-12-07T00:53:47;97900.19;;;5.89;91.72
45247;BME280;31529;51.158;7.354;2022-12-07T00:54:18;97894.34;;;5.86;91.61
45247;BME280;31529;51.158;7.354;2022-12-07T00:54:49;97894.34;;;5.86;91.56
45247;BME280;31529;51.158;7.354;2022-12-07T00:55:20;97903.09;;;5.87;91.34
45247;BME280;31529;51.158;7.354;2022-12-07T00:55:51;97890.63;;;5.87;91.28
45247;BME280;31529;51.158;7.354;2022-12-07T00:56:24;97897.53;;;5.89;91.55
45247;BME280;31529;51.158;7.354;2022-12-07T00:56:57;97903.09;;;5.87;91.19
45247;BME280;31529;51.158;7.354;2022-12-07T00:57:28;97897.78;;;5.87;91.41
45247;BME280;31529;51.158;7.354;2022-12-07T00:58:01;97895.41;;;5.85;91.55
45247;BME280;31529;51.158;7.354;2022-12-07T00:58:32;97901.22;;;5.87;91.58
45247;BME280;31529;51.158;7.354;2022-12-07T00:59:03;97897.00;;;5.86;91.64
45247;BME280;31529;51.158;7.354;2022-12-07T00:59:34;97898.59;;;5.87;91.80
45247;BME280;31529;51.158;7.354;2022-12-07T01:00:05;97898.59;;;5.87;91.69
45247;BME280;31529;51.158;7.354;2022-12-07T01:00:38;97896.47;;;5.90;91.94
45247;BME280;31529;51.158;7.354;2022-12-07T01:01:10;97896.47;;;5.90;91.41
45247;BME280;31529;51.158;7.354;2022-12-07T01:01:42;97896.47;;;5.90;91.85
45247;BME280;31529;51.158;7.354;2022-12-07T01:02:13;97894.66;;;5.90;91.47
45247;BME280;31529;51.158;7.354;2022-12-07T01:02:44;97898.09;;;5.91;91.19
45247;BME280;31529;51.158;7.354;2022-12-07T01:03:15;97896.47;;;5.90;91.73
45247;BME280;31529;51.158;7.354;2022-12-07T01:03:47;97893.59;;;5.91;91.46
45247;BME280;31529;51.158;7.354;2022-12-07T01:04:18;97896.22;;;5.91;91.60
45247;BME280;31529;51.158;7.354;2022-12-07T01:04:50;97896.47;;;5.90;91.57
45247;BME280;31529;51.158;7.354;2022-12-07T01:05:21;97901.78;;;5.90;91.17
45247;BME280;31529;51.158;7.354;2022-12-07T01:05:52;97887.50;;;5.91;91.63
45247;BME280;31529;51.158;7.354;2022-12-07T01:06:25;97894.38;;;5.92;91.35
45247;BME280;31529;51.158;7.354;2022-12-07T01:06:56;97896.78;;;5.93;91.69
45247;BME280;31529;51.158;7.354;2022-12-07T01:07:27;97889.06;;;5.92;91.33
45247;BME280;31529;51.158;7.354;2022-12-07T01:07:58;97885.38;;;5.93;91.65
45247;BME280;31529;51.158;7.354;2022-12-07T01:08:29;97889.63;;;5.94;91.72
45247;BME280;31529;51.158;7.354;2022-12-07T01:09:01;97889.06;;;5.92;91.40
45247;BME280;31529;51.158;7.354;2022-12-07T01:09:34;97887.50;;;5.91;91.31
45247;BME280;31529;51.158;7.354;2022-12-07T01:10:05;97895.19;;;5.92;91.76
45247;BME280;31529;51.158;7.354;2022-12-07T01:10:37;97889.06;;;5.92;91.62
45247;BME280;31529;51.158;7.354;2022-12-07T01:11:09;97883.53;;;5.93;91.34
45247;BME280;31529;51.158;7.354;2022-12-07T01:11:45;97886.44;;;5.92;91.52
45247;BME280;31529;51.158;7.354;2022-12-07T01:12:16;97884.84;;;5.91;91.69
45247;BME280;31529;51.158;7.354;2022-12-07T01:12:47;97883.78;;;5.92;91.60
45247;BME280;31529;51.158;7.354;2022-12-07T01:13:18;97884.31;;;5.94;91.47
45247;BME280;31529;51.158;7.354;2022-12-07T01:13:50;97886.19;;;5.93;91.42
45247;BME280;31529;51.158;7.354;2022-12-07T01:14:22;97883.00;;;5.91;91.69
45247;BME280;31529;51.158;7.354;2022-12-07T01:14:53;97883.78;;;5.92;91.33
45247;BME280;31529;51.158;7.354;2022-12-07T01:15:24;97895.19;;;5.92;91.61
45247;BME280;31529;51.158;7.354;2022-12-07T01:15:57;97893.59;;;5.91;91.55
45247;BME280;31529;51.158;7.354;2022-12-07T01:16:31;97881.13;;;5.92;91.55
45247;BME280;31529;51.158;7.354;2022-12-07T01:17:02;97880.09;;;5.93;91.32
45247;BME280;31529;51.158;7.354;2022-12-07T01:17:34;97889.91;;;5.92;91.81
45247;BME280;31529;51.158;7.354;2022-12-07T01:18:05;97886.19;;;5.93;91.21
45247;BME280;31529;51.158;7.354;2022-12-07T01:18:36;97880.09;;;5.93;91.49
45247;BME280;31529;51.158;7.354;2022-12-07T01:19:07;97882.50;;;5.94;91.56
45247;BME280;31529;51.158;7.354;2022-12-07T01:19:38;97880.88;;;5.93;91.67
45247;BME280;31529;51.158;7.354;2022-12-07T01:20:09;97885.38;;;5.93;91.73
45247;BME280;31529;51.158;7.354;2022-12-07T01:20:41;97881.69;;;5.94;91.89
45247;BME280;31529;51.158;7.354;2022-12-07T01:21:14;97882.19;;;5.91;91.75
45247;BME280;31529;51.158;7.354;2022-12-07T01:21:47;97880.34;;;5.91;91.82
45247;BME280;31529;51.158;7.354;2022-12-07T01:22:18;97885.63;;;5.91;92.15
45247;BME280;31529;51.158;7.354;2022-12-07T01:22:49;97881.13;;;5.92;91.82
45247;BME280;31529;51.158;7.354;2022-12-07T01:23:20;97884.84;;;5.91;91.93
45247;BME280;31529;51.158;7.354;2022-12-07T01:23:52;97885.09;;;5.89;92.09
45247;BME280;31529;51.158;7.354;2022-12-07T01:24:23;97881.13;;;5.86;92.25
45247;BME280;31529;51.158;7.354;2022-12-07T01:24:55;97886.97;;;5.89;91.83
45247;BME280;31529;51.158;7.354;2022-12-07T01:25:26;97889.59;;;5.89;92.42
45247;BME280;31529;51.158;7.354;2022-12-07T01:25:57;97884.31;;;5.89;91.99
45247;BME280;31529;51.158;7.354;2022-12-07T01:26:29;97884.31;;;5.89;92.24
45247;BME280;31529;51.158;7.354;2022-12-07T01:27:01;97884.31;;;5.89;92.32
45247;BME280;31529;51.158;7.354;2022-12-07T01:27:32;97893.03;;;5.89;92.31
45247;BME280;31529;51.158;7.354;2022-12-07T01:28:04;97894.38;;;5.92;92.16
45247;BME280;31529;51.158;7.354;2022-12-07T01:28:35;97892.00;;;5.90;92.34
45247;BME280;31529;51.158;7.354;2022-12-07T01:29:06;97885.88;;;5.90;92.50
45247;BME280;31529;51.158;7.354;2022-12-07T01:29:37;97880.59;;;5.90;92.39
45247;BME280;31529;51.158;7.354;2022-12-07T01:30:09;97887.50;;;5.91;92.19
45247;BME280;31529;51.158;7.354;2022-12-07T01:30:41;97894.38;;;5.92;92.49
45247;BME280;31529;51.158;7.354;2022-12-07T01:31:13;97888.28;;;5.91;91.97
45247;BME280;31529;51.158;7.354;2022-12-07T01:31:48;97889.91;;;5.92;92.41
45247;BME280;31529;51.158;7.354;2022-12-07T01:32:20;97887.25;;;5.92;92.47
45247;BME280;31529;51.158;7.354;2022-12-07T01:32:51;97894.91;;;5.94;92.07
45247;BME280;31529;51.158;7.354;2022-12-07T01:33:22;97897.56;;;5.94;92.11
45247;BME280;31529;51.158;7.354;2022-12-07T01:33:55;97891.47;;;5.93;92.34
45247;BME280;31529;51.158;7.354;2022-12-07T01:34:27;97887.56;;;5.96;91.67
45247;BME280;31529;51.158;7.354;2022-12-07T01:34:58;97884.94;;;5.96;92.03
45247;BME280;31529;51.158;7.354;2022-12-07T01:35:29;97888.59;;;5.95;91.98
45247;BME280;31529;51.158;7.354;2022-12-07T01:36:05;97890.44;;;5.94;91.71
45247;BME280;31529;51.158;7.354;2022-12-07T01:36:37;97888.81;;;5.93;92.30
45247;BME280;31529;51.158;7.354;2022-12-07T01:37:08;97884.94;;;5.96;92.23
45247;BME280;31529;51.158;7.354;2022-12-07T01:37:40;97882.00;;;5.97;92.04
45247;BME280;31529;51.158;7.354;2022-12-07T01:38:11;97889.16;;;5.97;91.81
45247;BME280;31529;51.158;7.354;2022-12-07T01:38:42;97894.19;;;5.98;92.10
45247;BME280;31529;51.158;7.354;2022-12-07T01:39:14;97890.75;;;5.98;91.60
45247;BME280;31529;51.158;7.354;2022-12-07T01:39:47;97889.94;;;5.97;91.44
45247;BME280;31529;51.158;7.354;2022-12-07T01:40:19;97888.38;;;5.96;91.83
45247;BME280;31529;51.158;7.354;2022-12-07T01:40:54;97888.38;;;5.96;91.52
45247;BME280;31529;51.158;7.354;2022-12-07T01:41:27;97883.28;;;5.95;92.10
45247;BME280;31529;51.158;7.354;2022-12-07T01:42:00;97899.16;;;5.95;91.66
45247;BME280;31529;51.158;7.354;2022-12-07T01:42:31;97884.59;;;5.92;92.36
45247;BME280;31529;51.158;7.354;2022-12-07T01:43:04;97884.31;;;5.94;92.23
45247;BME280;31529;51.158;7.354;2022-12-07T01:45:48;97889.91;;;5.92;92.23
45247;BME280;31529;51.158;7.354;2022-12-07T01:46:19;97889.91;;;5.92;92.00
45247;BME280;31529;51.158;7.354;2022-12-07T01:46:57;97897.03;;;5.92;91.86
45247;BME280;31529;51.158;7.354;2022-12-07T01:47:30;97883.25;;;5.90;92.26
45247;BME280;31529;51.158;7.354;2022-12-07T01:48:01;97894.91;;;5.89;92.29
45247;BME280;31529;51.158;7.354;2022-12-07T01:48:33;97890.41;;;5.89;92.14
45247;BME280;31529;51.158;7.354;2022-12-07T01:49:09;97883.78;;;5.92;92.19
45247;BME280;31529;51.158;7.354;2022-12-07T01:49:48;97885.38;;;5.93;92.09
45247;BME280;31529;51.158;7.354;2022-12-07T01:50:20;97880.09;;;5.93;92.47
45247;BME280;31529;51.158;7.354;2022-12-07T01:50:54;97879.31;;;5.92;92.14
45247;BME280;31529;51.158;7.354;2022-12-07T01:51:31;97883.78;;;5.92;92.44
45247;BME280;31529;51.158;7.354;2022-12-07T01:52:22;97883.78;;;5.92;92.13
45247;BME280;31529;51.158;7.354;2022-12-07T01:52:56;97889.41;;;5.95;91.95
45247;BME280;31529;51.158;7.354;2022-12-07T01:53:32;97883.53;;;5.93;92.22
45247;BME280;31529;51.158;7.354;2022-12-07T01:54:08;97880.63;;;5.95;92.15
45247;BME280;31529;51.158;7.354;2022-12-07T01:54:42;97876.97;;;5.96;92.04
45247;BME280;31529;51.158;7.354;2022-12-07T01:55:15;97875.34;;;5.95;92.45
45247;BME280;31529;51.158;7.354;2022-12-07T01:55:47;97778.53;;;5.29;92.29
45247;BME280;31529;51.158;7.354;2022-12-07T01:56:23;97879.63;;;5.96;92.39
45247;BME280;31529;51.158;7.354;2022-12-07T01:56:57;97873.25;;;5.97;92.24
45247;BME280;31529;51.158;7.354;2022-12-07T01:57:30;97873.25;;;5.97;92.50
45247;BME280;31529;51.158;7.354;2022-12-07T01:58:04;97871.97;;;6.04;91.90
45247;BME280;31529;51.158;7.354;2022-12-07T01:58:36;97873.34;;;6.07;91.67
45247;BME280;31529;51.158;7.354;2022-12-07T01:59:08;97872.28;;;6.08;91.63
45247;BME280;31529;51.158;7.354;2022-12-07T01:59:39;97871.22;;;6.09;91.18
45247;BME280;31529;51.158;7.354;2022-12-07T02:00:10;97868.31;;;6.11;91.31
45247;BME280;31529;51.158;7.354;2022-12-07T02:00:42;97875.22;;;6.12;91.57
45247;BME280;31529;51.158;7.354;2022-12-07T02:01:13;97867.25;;;6.12;90.92
45247;BME280;31529;51.158;7.354;2022-12-07T02:01:44;97874.72;;;6.15;91.14
45247;BME280;31529;51.158;7.354;2022-12-07T02:02:26;97869.41;;;6.15;91.04
45247;BME280;31529;51.158;7.354;2022-12-07T02:03:40;97865.94;;;6.14;90.91
45247;BME280;31529;51.158;7.354;2022-12-07T02:04:14;97870.19;;;6.15;91.17
45247;BME280;31529;51.158;7.354;2022-12-07T02:04:45;97771.31;;;5.57;91.14
45247;BME280;31529;51.158;7.354;2022-12-07T02:05:17;97867.56;;;6.15;90.99
45247;BME280;31529;51.158;7.354;2022-12-07T02:05:49;97863.03;;;6.16;91.35
45247;BME280;31529;51.158;7.354;2022-12-07T02:06:22;97869.94;;;6.17;91.09
45247;BME280;31529;51.158;7.354;2022-12-07T02:06:56;97871.53;;;6.18;91.19
45247;BME280;31529;51.158;7.354;2022-12-07T02:07:28;97871.53;;;6.18;91.05
45247;BME280;31529;51.158;7.354;2022-12-07T02:08:00;97866.22;;;6.18;91.08
45247;BME280;31529;51.158;7.354;2022-12-07T02:08:33;97870.50;;;6.19;90.82
45247;BME280;31529;51.158;7.354;2022-12-07T02:09:04;97868.63;;;6.19;90.72
45247;BME280;31529;51.158;7.354;2022-12-07T02:09:35;97867.03;;;6.18;90.86
45247;BME280;31529;51.158;7.354;2022-12-07T02:10:17;97869.13;;;6.16;91.11
45247;BME280;31529;51.158;7.354;2022-12-07T02:10:55;97869.66;;;6.18;90.76
45247;BME280;31529;51.158;7.354;2022-12-07T02:11:26;97876.03;;;6.17;91.03
45247;BME280;31529;51.158;7.354;2022-12-07T02:11:57;97874.44;;;6.16;91.26
45247;BME280;31529;51.158;7.354;2022-12-07T02:12:28;97874.44;;;6.16;91.01
45247;BME280;31529;51.158;7.354;2022-12-07T02:13:08;97865.69;;;6.16;91.21
45247;BME280;31529;51.158;7.354;2022-12-07T02:13:43;97872.06;;;6.15;91.26
45247;BME280;31529;51.158;7.354;2022-12-07T02:14:16;97872.59;;;6.17;90.99
45247;BME280;31529;51.158;7.354;2022-12-07T02:14:47;97865.69;;;6.16;91.34
45247;BME280;31529;51.158;7.354;2022-12-07T02:15:20;97869.94;;;6.17;90.89
45247;BME280;31529;51.158;7.354;2022-12-07T02:20:39;97860.94;;;6.18;90.97
45247;BME280;31529;51.158;7.354;2022-12-07T02:21:17;97865.44;;;6.17;91.05
45247;BME280;31529;51.158;7.354;2022-12-07T02:22:11;97864.66;;;6.17;90.99
45247;BME280;31529;51.158;7.354;2022-12-07T02:25:26;97856.16;;;6.15;91.56
45247;BME280;31529;51.158;7.354;2022-12-07T02:26:10;97864.66;;;6.17;91.33
45247;BME280;31529;51.158;7.354;2022-12-07T02:27:17;97857.25;;;6.19;91.26
45247;BME280;31529;51.158;7.354;2022-12-07T02:29:25;97865.41;;;6.12;91.47
45247;BME280;31529;51.158;7.354;2022-12-07T02:30:07;97868.06;;;6.12;90.98
45247;BME280;31529;51.158;7.354;2022-12-07T02:30:47;97866.47;;;6.11;91.26
45247;BME280;31529;51.158;7.354;2022-12-07T02:31:20;97863.53;;;6.13;91.01
45247;BME280;31529;51.158;7.354;2022-12-07T02:32:08;97860.09;;;6.12;91.46
45247;BME280;31529;51.158;7.354;2022-12-07T02:33:33;97868.59;;;6.14;91.48
45247;BME280;31529;51.158;7.354;2022-12-07T02:34:58;97866.47;;;6.16;91.24
45247;BME280;31529;51.158;7.354;2022-12-07T02:35:41;97866.47;;;6.16;91.62
45247;BME280;31529;51.158;7.354;2022-12-07T02:36:17;97869.13;;;6.16;91.21
45247;BME280;31529;51.158;7.354;2022-12-07T02:36:57;97865.69;;;6.16;91.32
45247;BME280;31529;51.158;7.354;2022-12-07T02:39:01;97863.03;;;6.16;91.25
45247;BME280;31529;51.158;7.354;2022-12-07T02:39:53;97868.09;;;6.17;91.14
45247;BME280;31529;51.158;7.354;2022-12-07T02:40:34;97863.84;;;6.16;91.29
45247;BME280;31529;51.158;7.354;2022-12-07T02:41:18;97863.03;;;6.16;91.15
45247;BME280;31529;51.158;7.354;2022-12-07T02:41:59;97869.41;;;6.20;90.88
45247;BME280;31529;51.158;7.354;2022-12-07T02:42:39;97860.16;;;6.17;91.28
45247;BME280;31529;51.158;7.354;2022-12-07T02:43:23;97863.59;;;6.18;91.52
45247;BME280;31529;51.158;7.354;2022-12-07T02:43:58;97868.06;;;6.12;91.25
45247;BME280;31529;51.158;7.354;2022-12-07T02:44:32;97860.88;;;6.08;91.72
45247;BME280;31529;51.158;7.354;2022-12-07T02:45:04;97858.25;;;6.08;91.75
45247;BME280;31529;51.158;7.354;2022-12-07T02:45:38;97860.34;;;6.05;91.62
45247;BME280;31529;51.158;7.354;2022-12-07T02:46:16;97861.13;;;6.06;91.95
45247;BME280;31529;51.158;7.354;2022-12-07T02:46:58;97860.59;;;6.04;91.80
45247;BME280;31529;51.158;7.354;2022-12-07T02:47:33;97863.78;;;6.06;92.07
45247;BME280;31529;51.158;7.354;2022-12-07T02:48:06;97866.44;;;6.06;91.74
45247;BME280;31529;51.158;7.354;2022-12-07T02:48:40;97862.19;;;6.05;91.96
45247;BME280;31529;51.158;7.354;2022-12-07T02:49:13;97856.88;;;6.05;91.98
45247;BME280;31529;51.158;7.354;2022-12-07T02:49:45;97865.09;;;6.03;92.42
45247;BME280;31529;51.158;7.354;2022-12-07T02:50:18;97865.91;;;6.04;92.19
45247;BME280;31529;51.158;7.354;2022-12-07T02:50:51;97859.00;;;6.03;92.45
45247;BME280;31529;51.158;7.354;2022-12-07T02:51:23;97861.63;;;6.03;92.53
45247;BME280;31529;51.158;7.354;2022-12-07T02:51:54;97868.78;;;6.02;91.92
45247;BME280;31529;51.158;7.354;2022-12-07T02:52:25;97858.19;;;6.02;92.34
45247;BME280;31529;51.158;7.354;2022-12-07T02:52:56;97866.94;;;6.03;92.51
45247;BME280;31529;51.158;7.354;2022-12-07T02:53:28;97865.09;;;6.03;92.60
45247;BME280;31529;51.158;7.354;2022-12-07T02:53:59;97863.78;;;6.06;92.31
45247;BME280;31529;51.158;7.354;2022-12-07T02:54:30;97867.47;;;6.05;92.27
45247;BME280;31529;51.158;7.354;2022-12-07T02:55:02;97867.47;;;6.05;91.91
45247;BME280;31529;51.158;7.354;2022-12-07T02:55:37;97863.78;;;6.06;92.09
45247;BME280;31529;51.158;7.354;2022-12-07T02:57:34;97862.19;;;6.05;92.39
45247;BME280;31529;51.158;7.354;2022-12-07T02:58:30;97860.09;;;6.07;91.99
45247;BME280;31529;51.158;7.354;2022-12-07T02:59:17;97861.69;;;6.08;91.96
45247;BME280;31529;51.158;7.354;2022-12-07T03:00:52;97863.78;;;6.06;92.32
45247;BME280;31529;51.158;7.354;2022-12-07T03:03:00;97856.09;;;6.04;91.88
45247;BME280;31529;51.158;7.354;2022-12-07T03:03:37;97865.09;;;6.03;92.21
45247;BME280;31529;51.158;7.354;2022-12-07T03:05:13;97865.91;;;6.04;92.20
45247;BME280;31529;51.158;7.354;2022-12-07T03:06:16;97864.28;;;6.03;92.61
45247;BME280;31529;51.158;7.354;2022-12-07T03:07:06;97863.78;;;6.06;92.38
45247;BME280;31529;51.158;7.354;2022-12-07T03:07:50;97860.66;;;6.14;92.16
45247;BME280;31529;51.158;7.354;2022-12-07T03:09:43;97858.53;;;6.16;91.42
45247;BME280;31529;51.158;7.354;2022-12-07T03:11:13;97866.22;;;6.18;91.69
45247;BME280;31529;51.158;7.354;2022-12-07T03:11:48;97860.94;;;6.18;91.42
45247;BME280;31529;51.158;7.354;2022-12-07T03:13:07;97863.81;;;6.11;91.15
45247;BME280;31529;51.158;7.354;2022-12-07T03:13:50;97859.53;;;6.05;91.50
45247;BME280;31529;51.158;7.354;2022-12-07T03:14:34;97864.03;;;6.04;92.23
45247;BME280;31529;51.158;7.354;2022-12-07T03:15:22;97862.72;;;6.02;92.22
45247;BME280;31529;51.158;7.354;2022-12-07T03:16:15;97857.69;;;6.05;91.83
45247;BME280;31529;51.158;7.354;2022-12-07T03:16:55;97810.06;;;5.73;91.96
45247;BME280;31529;51.158;7.354;2022-12-07T03:17:32;97867.47;;;6.05;92.01
45247;BME280;31529;51.158;7.354;2022-12-07T03:18:09;97865.09;;;6.03;92.55
45247;BME280;31529;51.158;7.354;2022-12-07T03:18:45;97859.00;;;6.03;92.32
45247;BME280;31529;51.158;7.354;2022-12-07T03:19:20;97862.47;;;6.03;91.96
45247;BME280;31529;51.158;7.354;2022-12-07T03:19:56;97862.19;;;6.05;91.92
45247;BME280;31529;51.158;7.354;2022-12-07T03:20:29;97866.69;;;6.04;91.91
45247;BME280;31529;51.158;7.354;2022-12-07T03:21:05;97860.59;;;6.04;92.33
45247;BME280;31529;51.158;7.354;2022-12-07T03:22:03;97859.00;;;6.03;92.65
45247;BME280;31529;51.158;7.354;2022-12-07T03:22:37;97859.00;;;6.03;92.40
45247;BME280;31529;51.158;7.354;2022-12-07T03:23:13;97861.63;;;6.03;91.93
45247;BME280;31529;51.158;7.354;2022-12-07T03:23:48;97858.19;;;6.02;92.57
45247;BME280;31529;51.158;7.354;2022-12-07T03:24:31;97865.09;;;6.03;92.12